sensor_id;sensor_type;location;lat;lon;timestamp;pressure;altitude;pressure_sealevel;temperature;humidity
21900;BME280;11114;50.658;12.704;2022-09-19T00:01:33;95350.25;;;7.75;91.25
21900;BME280;11114;50.658;12.704;2022-09-19T00:04:02;95354.16;;;7.71;91.40
21900;BME280;11114;50.658;12.704;2022-09-19T00:06:31;95356.75;;;7.71;91.50
21900;BME280;11114;50.658;12.704;2022-09-19T00:08:58;95350.75;;;7.71;91.76
21900;BME280;11114;50.658;12.704;2022-09-19T00:11:27;95352.38;;;7.72;91.80
21900;BME280;11114;50.658;12.704;2022-09-19T00:13:56;95354.66;;;7.67;91.85
21900;BME280;11114;50.658;12.704;2022-09-19T00:16:30;95356.75;;;7.63;92.22
21900;BME280;11114;50.658;12.704;2022-09-19T00:18:59;95369.06;;;7.61;92.37
21900;BME280;11114;50.658;12.704;2022-09-19T00:21:32;95351.88;;;7.60;92.89
21900;BME280;11114;50.658;12.704;2022-09-19T00:23:59;95353.31;;;7.63;93.02
21900;BME280;11114;50.658;12.704;2022-09-19T00:26:45;95357.22;;;7.59;93.01
21900;BME280;11114;50.658;12.704;2022-09-19T00:29:14;95347.94;;;7.56;93.25
21900;BME280;11114;50.658;12.704;2022-09-19T00:31:45;95354.09;;;7.55;93.95
21900;BME280;11114;50.658;12.704;2022-09-19T00:34:14;95350.06;;;7.53;93.69
21900;BME280;11114;50.658;12.704;2022-09-19T00:36:42;95350.22;;;7.51;94.25
21900;BME280;11114;50.658;12.704;2022-09-19T00:39:11;95351.84;;;7.52;93.99
21900;BME280;11114;50.658;12.704;2022-09-19T00:41:38;95356.88;;;7.54;94.35
21900;BME280;11114;50.658;12.704;2022-09-19T00:46:56;95348.59;;;7.50;94.88
21900;BME280;11114;50.658;12.704;2022-09-19T00:49:28;95357.84;;;7.53;95.28
21900;BME280;11114;50.658;12.704;2022-09-19T00:51:59;95360.94;;;7.56;95.53
21900;BME280;11114;50.658;12.704;2022-09-19T00:54:32;95358.81;;;7.52;95.55
21900;BME280;11114;50.658;12.704;2022-09-19T00:57:01;95355.59;;;7.50;96.11
21900;BME280;11114;50.658;12.704;2022-09-19T00:59:33;95354.44;;;7.44;96.68
21900;BME280;11114;50.658;12.704;2022-09-19T01:02:03;95367.25;;;7.54;97.27
21900;BME280;11114;50.658;12.704;2022-09-19T01:04:31;95371.00;;;7.59;97.23
21900;BME280;11114;50.658;12.704;2022-09-19T01:07:32;95366.78;;;7.58;97.47
21900;BME280;11114;50.658;12.704;2022-09-19T01:13:15;95370.81;;;7.53;97.51
21900;BME280;11114;50.658;12.704;2022-09-19T01:15:50;95370.03;;;7.52;97.72
21900;BME280;11114;50.658;12.704;2022-09-19T01:18:28;95368.41;;;7.51;97.63
21900;BME280;11114;50.658;12.704;2022-09-19T01:24:30;95378.78;;;7.51;98.06
21900;BME280;11114;50.658;12.704;2022-09-19T01:27:16;95374.25;;;7.53;98.36
21900;BME280;11114;50.658;12.704;2022-09-19T01:29:50;95389.38;;;7.58;98.27
21900;BME280;11114;50.658;12.704;2022-09-19T01:32:23;95381.22;;;7.61;98.53
21900;BME280;11114;50.658;12.704;2022-09-19T01:34:57;95381.59;;;7.66;98.24
21900;BME280;11114;50.658;12.704;2022-09-19T01:37:30;95385.63;;;7.68;98.56
21900;BME280;11114;50.658;12.704;2022-09-19T01:40:03;95379.97;;;7.73;99.03
21900;BME280;11114;50.658;12.704;2022-09-19T01:42:54;95388.41;;;7.75;98.10
21900;BME280;11114;50.658;12.704;2022-09-19T01:45:26;95391.81;;;7.75;98.82
21900;BME280;11114;50.658;12.704;2022-09-19T01:48:18;95391.34;;;7.80;98.83
21900;BME280;11114;50.658;12.704;2022-09-19T01:51:23;95390.53;;;7.79;99.03
21900;BME280;11114;50.658;12.704;2022-09-19T01:54:29;95393.63;;;7.83;98.70
21900;BME280;11114;50.658;12.704;2022-09-19T01:57:19;95390.22;;;7.90;99.24
21900;BME280;11114;50.658;12.704;2022-09-19T02:00:10;95394.44;;;7.91;98.73
21900;BME280;11114;50.658;12.704;2022-09-19T02:02:48;95390.72;;;7.94;99.33
21900;BME280;11114;50.658;12.704;2022-09-19T02:08:20;95406.66;;;8.07;99.25
21900;BME280;11114;50.658;12.704;2022-09-19T02:10:54;95411.06;;;8.14;99.27
21900;BME280;11114;50.658;12.704;2022-09-19T02:13:30;95409.78;;;8.18;99.06
21900;BME280;11114;50.658;12.704;2022-09-19T02:16:09;95419.19;;;8.19;98.60
21900;BME280;11114;50.658;12.704;2022-09-19T02:18:52;95414.00;;;8.19;98.65
21900;BME280;11114;50.658;12.704;2022-09-19T02:21:29;95411.88;;;8.22;98.23
21900;BME280;11114;50.658;12.704;2022-09-19T02:24:00;95418.22;;;8.20;98.47
21900;BME280;11114;50.658;12.704;2022-09-19T02:26:33;95414.31;;;8.16;97.84
21900;BME280;11114;50.658;12.704;2022-09-19T02:29:00;95412.19;;;8.12;98.29
21900;BME280;11114;50.658;12.704;2022-09-19T02:31:30;95413.97;;;8.11;97.96
21900;BME280;11114;50.658;12.704;2022-09-19T02:34:02;95413.00;;;8.12;98.50
21900;BME280;11114;50.658;12.704;2022-09-19T02:37:02;95420.34;;;8.17;98.72
21900;BME280;11114;50.658;12.704;2022-09-19T02:39:51;95427.31;;;8.16;98.03
21900;BME280;11114;50.658;12.704;2022-09-19T02:45:27;95434.50;;;8.22;98.64
21900;BME280;11114;50.658;12.704;2022-09-19T02:50:56;95441.63;;;8.36;98.33
21900;BME280;11114;50.658;12.704;2022-09-19T02:53:33;95434.97;;;8.41;98.27
21900;BME280;11114;50.658;12.704;2022-09-19T02:56:07;95442.47;;;8.36;97.70
21900;BME280;11114;50.658;12.704;2022-09-19T02:58:44;95445.06;;;8.36;97.80
21900;BME280;11114;50.658;12.704;2022-09-19T03:01:19;95454.63;;;8.36;97.61
21900;BME280;11114;50.658;12.704;2022-09-19T03:03:52;95451.72;;;8.39;97.49
21900;BME280;11114;50.658;12.704;2022-09-19T03:06:56;95449.59;;;8.34;97.01
21900;BME280;11114;50.658;12.704;2022-09-19T03:09:29;95451.84;;;8.29;97.21
21900;BME280;11114;50.658;12.704;2022-09-19T03:12:05;95454.63;;;8.28;97.31
21900;BME280;11114;50.658;12.704;2022-09-19T03:14:35;95465.34;;;8.25;97.43
21900;BME280;11114;50.658;12.704;2022-09-19T03:17:03;95466.16;;;8.25;97.63
21900;BME280;11114;50.658;12.704;2022-09-19T03:19:31;95465.53;;;8.31;97.52
21900;BME280;11114;50.658;12.704;2022-09-19T03:21:59;95469.25;;;8.37;97.69
21900;BME280;11114;50.658;12.704;2022-09-19T03:24:29;95480.00;;;8.42;97.19
21900;BME280;11114;50.658;12.704;2022-09-19T03:26:56;95475.78;;;8.49;97.39
21900;BME280;11114;50.658;12.704;2022-09-19T03:29:23;95480.34;;;8.55;96.89
21900;BME280;11114;50.658;12.704;2022-09-19T03:31:53;95481.78;;;8.57;96.85
21900;BME280;11114;50.658;12.704;2022-09-19T03:34:21;95484.56;;;8.56;96.31
21900;BME280;11114;50.658;12.704;2022-09-19T03:36:50;95482.44;;;8.51;96.38
21900;BME280;11114;50.658;12.704;2022-09-19T03:39:22;95501.13;;;8.47;96.72
21900;BME280;11114;50.658;12.704;2022-09-19T03:41:49;95499.19;;;8.41;96.34
21900;BME280;11114;50.658;12.704;2022-09-19T03:44:17;95499.81;;;8.35;96.97
21900;BME280;11114;50.658;12.704;2022-09-19T03:46:46;95506.63;;;8.36;97.12
21900;BME280;11114;50.658;12.704;2022-09-19T03:49:14;95509.91;;;8.38;97.26
21900;BME280;11114;50.658;12.704;2022-09-19T03:51:44;95509.13;;;8.45;97.42
21900;BME280;11114;50.658;12.704;2022-09-19T03:54:14;95510.25;;;8.51;97.27
21900;BME280;11114;50.658;12.704;2022-09-19T03:56:42;95522.13;;;8.53;96.74
21900;BME280;11114;50.658;12.704;2022-09-19T03:59:11;95526.19;;;8.56;97.03
21900;BME280;11114;50.658;12.704;2022-09-19T04:01:40;95529.44;;;8.58;96.89
21900;BME280;11114;50.658;12.704;2022-09-19T04:04:07;95526.19;;;8.64;97.01
21900;BME280;11114;50.658;12.704;2022-09-19T04:06:39;95541.16;;;8.70;97.10
21900;BME280;11114;50.658;12.704;2022-09-19T04:09:08;95540.16;;;8.71;96.85
21900;BME280;11114;50.658;12.704;2022-09-19T04:11:35;95539.19;;;8.72;96.51
21900;BME280;11114;50.658;12.704;2022-09-19T04:14:03;95543.75;;;8.70;96.47
21900;BME280;11114;50.658;12.704;2022-09-19T04:16:30;95549.78;;;8.70;96.68
21900;BME280;11114;50.658;12.704;2022-09-19T04:18:58;95550.44;;;8.72;96.31
21900;BME280;11114;50.658;12.704;2022-09-19T04:21:43;95550.56;;;8.71;96.33
21900;BME280;11114;50.658;12.704;2022-09-19T04:24:45;95559.84;;;8.73;96.23
21900;BME280;11114;50.658;12.704;2022-09-19T04:27:26;95554.00;;;8.71;96.38
21900;BME280;11114;50.658;12.704;2022-09-19T04:29:53;95567.16;;;8.78;96.31
21900;BME280;11114;50.658;12.704;2022-09-19T04:32:20;95562.47;;;8.81;96.34
21900;BME280;11114;50.658;12.704;2022-09-19T04:34:52;95562.63;;;8.88;96.26
21900;BME280;11114;50.658;12.704;2022-09-19T04:37:22;95565.88;;;8.90;95.76
21900;BME280;11114;50.658;12.704;2022-09-19T04:39:58;95572.72;;;8.91;95.77
21900;BME280;11114;50.658;12.704;2022-09-19T04:42:26;95577.63;;;8.94;95.70
21900;BME280;11114;50.658;12.704;2022-09-19T04:44:53;95571.09;;;8.98;95.51
21900;BME280;11114;50.658;12.704;2022-09-19T04:47:40;95568.50;;;8.98;95.31
21900;BME280;11114;50.658;12.704;2022-09-19T04:50:07;95572.72;;;8.98;95.35
21900;BME280;11114;50.658;12.704;2022-09-19T04:52:35;95578.59;;;9.00;94.97
21900;BME280;11114;50.658;12.704;2022-09-19T04:55:04;95577.75;;;9.00;95.06
21900;BME280;11114;50.658;12.704;2022-09-19T04:57:31;95574.19;;;9.01;95.17
21900;BME280;11114;50.658;12.704;2022-09-19T05:00:06;95576.28;;;9.05;94.92
21900;BME280;11114;50.658;12.704;2022-09-19T05:02:34;95584.75;;;9.07;94.91
21900;BME280;11114;50.658;12.704;2022-09-19T05:05:01;95594.03;;;9.10;94.67
21900;BME280;11114;50.658;12.704;2022-09-19T05:07:28;95597.78;;;9.07;94.64
21900;BME280;11114;50.658;12.704;2022-09-19T05:10:05;95603.16;;;9.06;94.75
21900;BME280;11114;50.658;12.704;2022-09-19T05:12:35;95602.31;;;9.05;94.51
21900;BME280;11114;50.658;12.704;2022-09-19T05:15:02;95614.06;;;9.09;94.60
21900;BME280;11114;50.658;12.704;2022-09-19T05:17:30;95609.66;;;9.10;94.65
21900;BME280;11114;50.658;12.704;2022-09-19T05:19:57;95618.94;;;9.12;94.69
21900;BME280;11114;50.658;12.704;2022-09-19T05:22:24;95609.66;;;9.10;94.75
21900;BME280;11114;50.658;12.704;2022-09-19T05:24:51;95620.41;;;9.07;94.61
21900;BME280;11114;50.658;12.704;2022-09-19T05:27:19;95622.19;;;9.06;94.57
21900;BME280;11114;50.658;12.704;2022-09-19T05:29:54;95624.13;;;9.04;94.93
21900;BME280;11114;50.658;12.704;2022-09-19T05:32:23;95625.13;;;9.03;95.18
21900;BME280;11114;50.658;12.704;2022-09-19T05:35:05;95638.28;;;9.02;95.13
21900;BME280;11114;50.658;12.704;2022-09-19T05:37:55;95641.88;;;9.01;95.01
21900;BME280;11114;50.658;12.704;2022-09-19T05:40:41;95640.88;;;9.02;95.42
21900;BME280;11114;50.658;12.704;2022-09-19T05:43:29;95644.31;;;9.02;95.00
21900;BME280;11114;50.658;12.704;2022-09-19T05:45:56;95649.84;;;8.99;95.30
21900;BME280;11114;50.658;12.704;2022-09-19T05:48:24;95648.03;;;9.00;95.44
21900;BME280;11114;50.658;12.704;2022-09-19T05:50:53;95654.06;;;9.00;95.75
21900;BME280;11114;50.658;12.704;2022-09-19T05:53:20;95649.19;;;9.05;96.09
21900;BME280;11114;50.658;12.704;2022-09-19T05:56:32;95655.41;;;9.12;95.79
21900;BME280;11114;50.658;12.704;2022-09-19T05:59:00;95663.38;;;9.19;95.80
21900;BME280;11114;50.658;12.704;2022-09-19T06:01:28;95665.16;;;9.18;95.56
21900;BME280;11114;50.658;12.704;2022-09-19T06:03:56;95672.00;;;9.19;95.80
21900;BME280;11114;50.658;12.704;2022-09-19T06:06:25;95674.91;;;9.16;95.40
21900;BME280;11114;50.658;12.704;2022-09-19T06:08:56;95660.28;;;9.15;95.62
21900;BME280;11114;50.658;12.704;2022-09-19T06:11:28;95668.75;;;9.17;95.79
21900;BME280;11114;50.658;12.704;2022-09-19T06:13:55;95677.03;;;9.21;95.92
21900;BME280;11114;50.658;12.704;2022-09-19T06:16:42;95679.16;;;9.17;95.67
21900;BME280;11114;50.658;12.704;2022-09-19T06:19:32;95676.56;;;9.17;95.74
21900;BME280;11114;50.658;12.704;2022-09-19T06:22:13;95687.13;;;9.16;95.59
21900;BME280;11114;50.658;12.704;2022-09-19T06:24:41;95690.72;;;9.15;95.99
21900;BME280;11114;50.658;12.704;2022-09-19T06:27:10;95692.50;;;9.22;96.26
21900;BME280;11114;50.658;12.704;2022-09-19T06:29:39;95683.56;;;9.25;96.23
21900;BME280;11114;50.658;12.704;2022-09-19T06:32:27;95688.91;;;9.23;96.01
21900;BME280;11114;50.658;12.704;2022-09-19T06:35:09;95694.47;;;9.20;95.97
21900;BME280;11114;50.658;12.704;2022-09-19T06:37:37;95705.69;;;9.21;95.83
21900;BME280;11114;50.658;12.704;2022-09-19T06:40:07;95698.53;;;9.23;96.17
21900;BME280;11114;50.658;12.704;2022-09-19T06:42:47;95711.06;;;9.27;96.31
21900;BME280;11114;50.658;12.704;2022-09-19T06:45:25;95715.94;;;9.30;96.11
21900;BME280;11114;50.658;12.704;2022-09-19T06:47:59;95712.72;;;9.36;96.27
21900;BME280;11114;50.658;12.704;2022-09-19T06:50:51;95721.03;;;9.40;96.23
21900;BME280;11114;50.658;12.704;2022-09-19T06:53:18;95723.63;;;9.40;96.16
21900;BME280;11114;50.658;12.704;2022-09-19T06:55:48;95726.22;;;9.40;95.78
21900;BME280;11114;50.658;12.704;2022-09-19T06:58:19;95730.59;;;9.39;96.19
21900;BME280;11114;50.658;12.704;2022-09-19T07:00:47;95731.25;;;9.41;96.35
21900;BME280;11114;50.658;12.704;2022-09-19T07:03:20;95728.66;;;9.41;96.23
21900;BME280;11114;50.658;12.704;2022-09-19T07:05:57;95743.00;;;9.37;96.08
21900;BME280;11114;50.658;12.704;2022-09-19T07:08:36;95748.22;;;9.37;96.13
21900;BME280;11114;50.658;12.704;2022-09-19T07:11:06;95756.81;;;9.38;96.40
21900;BME280;11114;50.658;12.704;2022-09-19T07:13:37;95755.06;;;9.38;96.37
21900;BME280;11114;50.658;12.704;2022-09-19T07:16:07;95762.69;;;9.40;96.29
21900;BME280;11114;50.658;12.704;2022-09-19T07:18:34;95746.91;;;9.41;96.60
21900;BME280;11114;50.658;12.704;2022-09-19T07:21:31;95765.63;;;9.45;96.93
21900;BME280;11114;50.658;12.704;2022-09-19T07:23:59;95763.69;;;9.47;96.91
21900;BME280;11114;50.658;12.704;2022-09-19T07:26:57;95769.06;;;9.53;96.87
21900;BME280;11114;50.658;12.704;2022-09-19T07:29:24;95780.16;;;9.55;96.80
21900;BME280;11114;50.658;12.704;2022-09-19T07:31:51;95780.31;;;9.62;96.96
21900;BME280;11114;50.658;12.704;2022-09-19T07:34:18;95785.69;;;9.68;97.40
21900;BME280;11114;50.658;12.704;2022-09-19T07:36:47;95779.50;;;9.77;97.45
21900;BME280;11114;50.658;12.704;2022-09-19T07:39:14;95781.47;;;9.83;97.60
21900;BME280;11114;50.658;12.704;2022-09-19T07:41:55;95783.91;;;9.92;97.41
21900;BME280;11114;50.658;12.704;2022-09-19T07:44:45;95790.13;;;9.99;97.00
21900;BME280;11114;50.658;12.704;2022-09-19T07:47:29;95793.56;;;10.08;97.13
21900;BME280;11114;50.658;12.704;2022-09-19T07:50:29;95804.13;;;10.14;96.89
21900;BME280;11114;50.658;12.704;2022-09-19T07:53:00;95802.84;;;10.18;96.59
21900;BME280;11114;50.658;12.704;2022-09-19T07:55:29;95804.47;;;10.19;96.18
21900;BME280;11114;50.658;12.704;2022-09-19T07:57:58;95814.09;;;10.19;96.12
21900;BME280;11114;50.658;12.704;2022-09-19T08:00:40;95814.25;;;10.25;96.13
21900;BME280;11114;50.658;12.704;2022-09-19T08:03:12;95819.47;;;10.25;95.70
21900;BME280;11114;50.658;12.704;2022-09-19T08:05:41;95824.69;;;10.25;95.12
21900;BME280;11114;50.658;12.704;2022-09-19T08:08:11;95822.25;;;10.24;95.02
21900;BME280;11114;50.658;12.704;2022-09-19T08:10:38;95824.84;;;10.24;94.84
21900;BME280;11114;50.658;12.704;2022-09-19T08:13:15;95835.44;;;10.22;94.68
21900;BME280;11114;50.658;12.704;2022-09-19T08:15:43;95839.53;;;10.25;94.79
21900;BME280;11114;50.658;12.704;2022-09-19T08:18:13;95837.91;;;10.24;94.51
21900;BME280;11114;50.658;12.704;2022-09-19T08:20:41;95836.25;;;10.23;94.67
21900;BME280;11114;50.658;12.704;2022-09-19T08:23:10;95847.50;;;10.23;94.49
21900;BME280;11114;50.658;12.704;2022-09-19T08:25:40;95836.59;;;10.20;94.34
21900;BME280;11114;50.658;12.704;2022-09-19T08:28:10;95841.00;;;10.19;94.88
21900;BME280;11114;50.658;12.704;2022-09-19T08:30:37;95843.13;;;10.24;94.55
21900;BME280;11114;50.658;12.704;2022-09-19T08:33:06;95844.91;;;10.23;94.41
21900;BME280;11114;50.658;12.704;2022-09-19T08:35:39;95853.56;;;10.24;94.29
21900;BME280;11114;50.658;12.704;2022-09-19T08:38:12;95857.31;;;10.21;93.92
21900;BME280;11114;50.658;12.704;2022-09-19T08:43:18;95851.75;;;10.16;94.41
21900;BME280;11114;50.658;12.704;2022-09-19T08:48:23;95855.19;;;10.25;95.18
21900;BME280;11114;50.658;12.704;2022-09-19T08:50:57;95860.53;;;10.31;95.61
21900;BME280;11114;50.658;12.704;2022-09-19T08:53:33;95863.81;;;10.33;95.22
21900;BME280;11114;50.658;12.704;2022-09-19T08:56:05;95869.38;;;10.38;95.29
21900;BME280;11114;50.658;12.704;2022-09-19T08:58:34;95878.00;;;10.39;94.76
21900;BME280;11114;50.658;12.704;2022-09-19T09:01:35;95880.94;;;10.44;95.02
21900;BME280;11114;50.658;12.704;2022-09-19T09:04:29;95877.50;;;10.51;95.14
21900;BME280;11114;50.658;12.704;2022-09-19T09:10:17;95885.97;;;10.69;95.63
21900;BME280;11114;50.658;12.704;2022-09-19T09:12:59;95890.38;;;10.76;95.00
21900;BME280;11114;50.658;12.704;2022-09-19T09:16:03;95891.50;;;10.82;95.06
21900;BME280;11114;50.658;12.704;2022-09-19T09:24:14;95897.22;;;10.85;93.74
21900;BME280;11114;50.658;12.704;2022-09-19T09:27:18;95892.78;;;10.86;93.69
21900;BME280;11114;50.658;12.704;2022-09-19T09:29:56;95910.59;;;10.82;93.15
21900;BME280;11114;50.658;12.704;2022-09-19T09:32:34;95901.13;;;10.81;93.17
21900;BME280;11114;50.658;12.704;2022-09-19T09:35:28;95905.38;;;10.82;93.03
21900;BME280;11114;50.658;12.704;2022-09-19T09:38:35;95910.56;;;10.90;93.60
21900;BME280;11114;50.658;12.704;2022-09-19T09:41:22;95912.38;;;10.98;93.43
21900;BME280;11114;50.658;12.704;2022-09-19T09:49:28;95919.34;;;11.21;93.29
21900;BME280;11114;50.658;12.704;2022-09-19T09:58:15;95910.94;;;11.42;92.52
21900;BME280;11114;50.658;12.704;2022-09-19T10:00:50;95917.16;;;11.41;92.02
21900;BME280;11114;50.658;12.704;2022-09-19T10:03:48;95919.75;;;11.41;91.91
21900;BME280;11114;50.658;12.704;2022-09-19T10:06:32;95920.56;;;11.41;92.00
21900;BME280;11114;50.658;12.704;2022-09-19T10:14:27;95922.19;;;11.42;91.57
21900;BME280;11114;50.658;12.704;2022-09-19T10:17:15;95916.50;;;11.39;91.65
21900;BME280;11114;50.658;12.704;2022-09-19T10:19:49;95915.69;;;11.38;91.39
21900;BME280;11114;50.658;12.704;2022-09-19T10:22:18;95918.31;;;11.38;91.35
21900;BME280;11114;50.658;12.704;2022-09-19T10:24:56;95922.19;;;11.42;91.73
21900;BME280;11114;50.658;12.704;2022-09-19T10:30:23;95919.25;;;11.53;92.47
21900;BME280;11114;50.658;12.704;2022-09-19T10:32:56;95919.88;;;11.63;92.21
21900;BME280;11114;50.658;12.704;2022-09-19T10:35:38;95927.38;;;11.66;91.66
21900;BME280;11114;50.658;12.704;2022-09-19T10:38:12;95930.50;;;11.61;91.46
21900;BME280;11114;50.658;12.704;2022-09-19T10:43:31;95937.50;;;11.61;91.50
21900;BME280;11114;50.658;12.704;2022-09-19T10:46:03;95942.09;;;11.59;91.50
21900;BME280;11114;50.658;12.704;2022-09-19T10:48:38;95934.59;;;11.56;91.37
21900;BME280;11114;50.658;12.704;2022-09-19T10:51:08;95938.19;;;11.55;90.75
21900;BME280;11114;50.658;12.704;2022-09-19T10:53:40;95951.44;;;11.53;90.55
21900;BME280;11114;50.658;12.704;2022-09-19T10:56:28;95932.66;;;11.42;89.68
21900;BME280;11114;50.658;12.704;2022-09-19T10:59:07;95945.59;;;11.36;90.25
21900;BME280;11114;50.658;12.704;2022-09-19T11:04:51;95932.69;;;11.34;90.70
21900;BME280;11114;50.658;12.704;2022-09-19T11:07:23;95939.22;;;11.38;91.02
21900;BME280;11114;50.658;12.704;2022-09-19T11:09:59;95940.47;;;11.50;92.24
21900;BME280;11114;50.658;12.704;2022-09-19T11:13:04;95946.16;;;11.69;93.63
21900;BME280;11114;50.658;12.704;2022-09-19T11:15:35;95956.72;;;11.76;92.84
21900;BME280;11114;50.658;12.704;2022-09-19T11:18:10;95953.59;;;11.80;92.58
21900;BME280;11114;50.658;12.704;2022-09-19T11:21:20;95964.56;;;11.76;92.04
21900;BME280;11114;50.658;12.704;2022-09-19T11:29:37;95980.34;;;11.52;90.77
21900;BME280;11114;50.658;12.704;2022-09-19T11:32:34;95979.03;;;11.48;91.00
21900;BME280;11114;50.658;12.704;2022-09-19T11:35:48;95989.31;;;11.49;91.33
21900;BME280;11114;50.658;12.704;2022-09-19T11:38:30;95996.34;;;11.49;91.22
21900;BME280;11114;50.658;12.704;2022-09-19T11:44:49;96002.28;;;11.27;91.05
21900;BME280;11114;50.658;12.704;2022-09-19T11:55:57;95989.88;;;11.21;89.22
21900;BME280;11114;50.658;12.704;2022-09-19T12:04:34;95969.97;;;11.12;89.95
21900;BME280;11114;50.658;12.704;2022-09-19T12:07:14;95973.38;;;11.13;89.82
21900;BME280;11114;50.658;12.704;2022-09-19T12:10:03;95971.09;;;11.18;89.98
21900;BME280;11114;50.658;12.704;2022-09-19T12:12:33;95987.59;;;11.18;89.86
21900;BME280;11114;50.658;12.704;2022-09-19T12:15:25;95989.72;;;11.15;89.73
21900;BME280;11114;50.658;12.704;2022-09-19T12:20:42;95985.81;;;11.19;89.74
21900;BME280;11114;50.658;12.704;2022-09-19T12:23:20;95990.19;;;11.18;89.67
21900;BME280;11114;50.658;12.704;2022-09-19T12:26:20;95986.13;;;11.16;89.37
21900;BME280;11114;50.658;12.704;2022-09-19T12:28:58;95995.91;;;11.14;89.21
21900;BME280;11114;50.658;12.704;2022-09-19T12:31:31;95989.91;;;11.13;89.76
21900;BME280;11114;50.658;12.704;2022-09-19T12:34:11;95989.53;;;11.16;89.90
21900;BME280;11114;50.658;12.704;2022-09-19T12:36:51;95988.41;;;11.19;89.95
21900;BME280;11114;50.658;12.704;2022-09-19T12:39:41;95991.34;;;11.24;90.60
21900;BME280;11114;50.658;12.704;2022-09-19T12:42:32;95986.91;;;11.24;90.21
21900;BME280;11114;50.658;12.704;2022-09-19T12:45:14;95987.56;;;11.26;90.52
21900;BME280;11114;50.658;12.704;2022-09-19T12:50:25;95991.16;;;11.33;90.09
21900;BME280;11114;50.658;12.704;2022-09-19T12:53:46;96001.44;;;11.35;89.93
21900;BME280;11114;50.658;12.704;2022-09-19T12:56:20;96000.63;;;11.34;90.14
21900;BME280;11114;50.658;12.704;2022-09-19T12:59:01;96005.19;;;11.32;90.08
21900;BME280;11114;50.658;12.704;2022-09-19T13:06:35;95988.91;;;11.22;90.60
21900;BME280;11114;50.658;12.704;2022-09-19T13:09:19;95989.88;;;11.29;91.08
21900;BME280;11114;50.658;12.704;2022-09-19T13:11:56;95977.56;;;11.38;91.28
21900;BME280;11114;50.658;12.704;2022-09-19T13:14:35;95977.75;;;11.52;92.03
21900;BME280;11114;50.658;12.704;2022-09-19T13:17:10;95979.63;;;11.74;92.83
21900;BME280;11114;50.658;12.704;2022-09-19T13:19:57;95973.50;;;11.97;94.26
21900;BME280;11114;50.658;12.704;2022-09-19T13:22:53;95984.34;;;12.17;92.94
21900;BME280;11114;50.658;12.704;2022-09-19T13:25:40;95982.94;;;12.36;93.01
21900;BME280;11114;50.658;12.704;2022-09-19T13:28:46;95987.41;;;12.50;92.79
21900;BME280;11114;50.658;12.704;2022-09-19T13:31:14;95990.97;;;12.57;90.77
21900;BME280;11114;50.658;12.704;2022-09-19T13:36:54;95982.63;;;12.54;89.81
21900;BME280;11114;50.658;12.704;2022-09-19T13:39:55;95983.09;;;12.57;88.99
21900;BME280;11114;50.658;12.704;2022-09-19T13:42:36;95975.25;;;12.57;89.06
21900;BME280;11114;50.658;12.704;2022-09-19T13:47:39;95994.81;;;12.47;88.23
21900;BME280;11114;50.658;12.704;2022-09-19T13:52:53;95997.97;;;12.34;88.62
21900;BME280;11114;50.658;12.704;2022-09-19T13:55:35;96002.13;;;12.51;89.98
21900;BME280;11114;50.658;12.704;2022-09-19T13:58:36;95996.06;;;12.73;90.61
21900;BME280;11114;50.658;12.704;2022-09-19T14:03:42;95996.59;;;13.13;91.91
21900;BME280;11114;50.658;12.704;2022-09-19T14:06:18;96005.59;;;13.33;91.09
21900;BME280;11114;50.658;12.704;2022-09-19T14:09:12;95996.13;;;13.47;91.20
21900;BME280;11114;50.658;12.704;2022-09-19T14:11:59;95994.69;;;13.59;90.39
21900;BME280;11114;50.658;12.704;2022-09-19T14:19:48;95987.00;;;13.72;89.84
21900;BME280;11114;50.658;12.704;2022-09-19T14:28:04;95994.78;;;13.51;86.63
21900;BME280;11114;50.658;12.704;2022-09-19T14:30:49;95994.66;;;13.30;86.26
21900;BME280;11114;50.658;12.704;2022-09-19T14:38:56;95994.94;;;12.98;86.65
21900;BME280;11114;50.658;12.704;2022-09-19T14:47:27;96004.59;;;12.75;86.96
21900;BME280;11114;50.658;12.704;2022-09-19T14:50:10;96007.25;;;12.67;86.73
21900;BME280;11114;50.658;12.704;2022-09-19T14:52:56;96002.34;;;12.42;85.63
21900;BME280;11114;50.658;12.704;2022-09-19T14:55:27;95982.94;;;12.28;85.80
21900;BME280;11114;50.658;12.704;2022-09-19T14:57:54;95992.47;;;12.22;85.84
21900;BME280;11114;50.658;12.704;2022-09-19T15:02:51;96004.00;;;12.05;86.45
21900;BME280;11114;50.658;12.704;2022-09-19T15:05:25;96002.22;;;12.05;87.01
21900;BME280;11114;50.658;12.704;2022-09-19T15:07:52;96010.88;;;12.06;86.99
21900;BME280;11114;50.658;12.704;2022-09-19T15:12:54;96004.00;;;12.05;86.72
21900;BME280;11114;50.658;12.704;2022-09-19T15:15:26;95993.22;;;12.08;86.83
21900;BME280;11114;50.658;12.704;2022-09-19T15:17:54;95983.22;;;12.11;87.00
21900;BME280;11114;50.658;12.704;2022-09-19T15:20:21;95992.25;;;12.09;86.35
21900;BME280;11114;50.658;12.704;2022-09-19T15:22:54;96001.25;;;12.06;86.13
21900;BME280;11114;50.658;12.704;2022-09-19T15:25:34;95999.63;;;12.05;86.41
21900;BME280;11114;50.658;12.704;2022-09-19T15:28:21;96004.84;;;12.05;86.12
21900;BME280;11114;50.658;12.704;2022-09-19T15:30:49;95994.25;;;11.99;86.14
21900;BME280;11114;50.658;12.704;2022-09-19T15:33:16;95990.28;;;12.03;87.07
21900;BME280;11114;50.658;12.704;2022-09-19T15:35:45;96004.66;;;12.07;86.64
21900;BME280;11114;50.658;12.704;2022-09-19T15:41:03;96004.38;;;12.02;85.87
21900;BME280;11114;50.658;12.704;2022-09-19T15:43:32;95997.03;;;11.97;86.11
21900;BME280;11114;50.658;12.704;2022-09-19T15:46:16;95992.31;;;11.93;86.10
21900;BME280;11114;50.658;12.704;2022-09-19T15:48:56;95990.00;;;11.98;86.41
21900;BME280;11114;50.658;12.704;2022-09-19T15:53:51;96001.09;;;12.00;86.33
21900;BME280;11114;50.658;12.704;2022-09-19T15:56:18;96000.41;;;12.06;86.57
21900;BME280;11114;50.658;12.704;2022-09-19T15:58:51;96001.06;;;12.08;86.04